Time;durP1;ratioP1;P1;durP2;ratioP2;P2;SDS_P1;SDS_P2;PMS_P1;PMS_P2;Temp;Humidity;BMP_temperature;BMP_pressure;BME280_temperature;BME280_humidity;BME280_pressure;Samples;Min_cycle;Max_cycle;Signal;HPM_P1;HPM_P2
2022/04/19 00:00:01;;;;;;;16.65;5.88;;;;;;;8.62;41.87;99343.56;4934417;29;20532;-66
2022/04/19 00:02:28;;;;;;;21.90;5.80;;;;;;;8.55;42.06;99334.03;4933450;29;20071;-68
2022/04/19 00:04:58;;;;;;;14.10;5.57;;;;;;;8.41;42.30;99336.44;4932983;29;20583;-68
2022/04/19 00:07:24;;;;;;;13.98;5.05;;;;;;;8.45;42.35;99343.78;4933241;29;20074;-68
2022/04/19 00:09:51;;;;;;;14.30;5.38;;;;;;;8.46;42.39;99339.97;4933230;29;20056;-68
2022/04/19 00:12:17;;;;;;;15.80;5.38;;;;;;;8.40;42.60;99338.34;4932845;29;20058;-68
2022/04/19 00:14:44;;;;;;;16.80;5.60;;;;;;;8.41;42.52;99333.72;4933102;29;20079;-67
2022/04/19 00:17:11;;;;;;;16.77;6.00;;;;;;;8.38;42.70;99332.38;4936793;29;20055;-67
2022/04/19 00:19:37;;;;;;;13.40;5.43;;;;;;;8.37;42.90;99333.47;4933469;29;20091;-67
2022/04/19 00:22:03;;;;;;;13.82;6.18;;;;;;;8.35;43.07;99327.44;4932355;29;20055;-67
2022/04/19 00:24:29;;;;;;;12.75;5.25;;;;;;;8.42;43.01;99329.91;4932309;29;20115;-65
2022/04/19 00:26:56;;;;;;;14.35;5.63;;;;;;;8.38;43.09;99335.09;4933224;29;20051;-68
2022/04/19 00:29:22;;;;;;;13.60;5.60;;;;;;;8.33;43.27;99335.91;4933055;29;20067;-68
2022/04/19 00:31:48;;;;;;;18.13;5.28;;;;;;;8.36;43.14;99338.06;4932927;29;20115;-68
2022/04/19 00:34:16;;;;;;;16.02;5.40;;;;;;;8.33;43.29;99333.19;4933052;29;20062;-68
2022/04/19 00:36:42;;;;;;;17.33;4.88;;;;;;;8.36;43.21;99340.00;4931242;29;20060;-69
2022/04/19 00:39:08;;;;;;;17.67;5.10;;;;;;;8.37;43.33;99333.47;4932590;29;20055;-68
2022/04/19 00:41:34;;;;;;;14.98;5.10;;;;;;;8.33;43.38;99337.78;4932229;29;20544;-68
2022/04/19 00:44:01;;;;;;;19.92;4.53;;;;;;;8.31;43.48;99329.91;4935070;29;20056;-66
2022/04/19 00:46:27;;;;;;;19.40;5.30;;;;;;;8.28;43.57;99335.91;4932101;29;20071;-68
2022/04/19 00:48:53;;;;;;;15.38;5.07;;;;;;;8.27;43.91;99339.69;4928947;29;20526;-68
2022/04/19 00:51:22;;;;;;;16.17;5.03;;;;;;;8.32;43.83;99337.00;4931641;29;20060;-68
2022/04/19 00:53:48;;;;;;;17.65;5.65;;;;;;;8.31;43.95;99337.25;4943608;29;20066;-66
2022/04/19 00:56:16;;;;;;;19.75;5.55;;;;;;;8.26;44.10;99327.16;4930583;29;20071;-68
2022/04/19 00:58:43;;;;;;;12.02;4.95;;;;;;;8.26;44.31;99324.44;4932198;29;20055;-68
2022/04/19 01:01:10;;;;;;;14.05;4.93;;;;;;;8.27;44.25;99328.78;4914902;29;20516;-68
2022/04/19 01:03:37;;;;;;;13.35;4.90;;;;;;;8.27;44.43;99328.78;4914526;29;20056;-67
2022/04/19 01:06:10;;;;;;;11.90;5.18;;;;;;;8.21;44.51;99319.00;4912252;29;20063;-68
2022/04/19 01:08:38;;;;;;;14.77;5.27;;;;;;;8.22;44.52;99321.47;4933059;29;20048;-67
2022/04/19 01:14:04;;;;;;;12.57;4.80;;;;;;;8.22;44.61;99324.19;4932532;29;20425;-67
2022/04/19 01:16:35;;;;;;;13.90;4.93;;;;;;;8.26;44.74;99318.19;4924475;29;20048;-68
2022/04/19 01:19:04;;;;;;;13.75;4.68;;;;;;;8.25;44.42;99309.19;4918233;29;20056;-68
2022/04/19 01:21:42;;;;;;;;;;;;;;;8.26;44.45;99310.00;4931298;29;20063;-68
2022/04/19 01:24:14;;;;;;;12.05;4.82;;;;;;;8.26;44.65;99307.28;4918496;29;19931;-68
2022/04/19 01:26:41;;;;;;;27.63;6.35;;;;;;;8.29;44.59;99306.75;4934986;29;20070;-69
2022/04/19 01:29:08;;;;;;;32.60;5.45;;;;;;;8.31;44.44;99302.66;4939337;29;20406;-68
2022/04/19 01:31:34;;;;;;;19.90;5.60;;;;;;;8.32;44.53;99300.75;4934988;29;20058;-68
2022/04/19 01:34:02;;;;;;;18.08;6.38;;;;;;;8.27;44.82;99303.47;4933431;29;20052;-68
2022/04/19 01:36:29;;;;;;;15.63;5.28;;;;;;;8.28;44.88;99295.03;4933911;29;20106;-68
2022/04/19 01:38:56;;;;;;;12.85;5.50;;;;;;;8.26;45.03;99288.22;4920965;29;20056;-68
2022/04/19 01:41:25;;;;;;;12.90;5.15;;;;;;;8.22;44.94;99296.13;4934821;29;20063;-69
2022/04/19 01:43:54;;;;;;;13.85;5.28;;;;;;;8.22;45.14;99290.66;4900320;29;20424;-68
2022/04/19 01:46:23;;;;;;;12.77;4.70;;;;;;;8.25;45.05;99297.50;4918472;29;20184;-73
2022/04/19 01:48:50;;;;;;;13.20;5.43;;;;;;;8.12;45.39;99296.09;4936701;29;20142;-73
2022/04/19 01:51:17;;;;;;;12.32;5.07;;;;;;;8.00;45.89;99293.63;4919003;29;20417;-73
2022/04/19 01:53:43;;;;;;;15.07;5.57;;;;;;;8.06;45.76;99298.81;4905769;29;20440;-72
2022/04/19 01:56:10;;;;;;;11.63;5.30;;;;;;;8.02;46.06;99300.47;4913856;29;20090;-73
2022/04/19 01:58:55;;;;;;;15.32;6.20;;;;;;;8.02;45.95;99315.97;4915962;29;20054;-72
2022/04/19 02:01:44;;;;;;;11.77;5.13;;;;;;;8.09;46.13;99308.38;4926945;29;20063;-68
2022/04/19 02:04:11;;;;;;;12.40;4.97;;;;;;;8.03;46.15;99309.44;4930836;29;20111;-68
2022/04/19 02:06:39;;;;;;;19.43;5.97;;;;;;;8.00;46.27;99313.53;4929756;29;20183;-68
2022/04/19 02:09:05;;;;;;;11.63;5.32;;;;;;;8.01;46.39;99317.06;4921026;29;20315;-67
2022/04/19 02:11:32;;;;;;;13.15;5.28;;;;;;;8.03;46.23;99318.44;4926193;29;20503;-69
2022/04/19 02:14:15;;;;;;;14.18;5.20;;;;;;;8.17;46.05;99320.63;4918624;29;20065;-68
2022/04/19 02:16:44;;;;;;;14.90;6.68;;;;;;;8.14;46.19;99319.25;4937645;29;20055;-68
2022/04/19 02:19:10;;;;;;;11.50;5.50;;;;;;;8.12;46.23;99321.44;4922959;29;20059;-67
2022/04/19 02:21:38;;;;;;;16.10;5.43;;;;;;;8.14;45.94;99313.00;4917914;29;20087;-68
2022/04/19 02:24:05;;;;;;;12.55;5.13;;;;;;;8.16;45.88;99321.72;4939681;29;20515;-68
2022/04/19 02:26:32;;;;;;;12.07;5.72;;;;;;;8.19;45.77;99315.72;4950166;29;20146;-68
2022/04/19 02:28:59;;;;;;;17.83;5.35;;;;;;;8.00;46.32;99312.69;4933636;29;20060;-68
2022/04/19 02:31:35;;;;;;;14.02;5.28;;;;;;;8.01;46.19;99323.31;4917681;29;20055;-68
2022/04/19 02:34:02;;;;;;;18.40;5.85;;;;;;;7.92;46.67;99312.16;4931381;29;20047;-68
2022/04/19 02:36:28;;;;;;;14.40;5.30;;;;;;;8.02;46.28;99327.69;4933871;29;20468;-68
2022/04/19 02:38:57;;;;;;;12.45;5.00;;;;;;;7.97;46.38;99333.13;4934498;29;20079;-68
2022/04/19 02:41:23;;;;;;;13.18;4.90;;;;;;;8.00;46.17;99335.31;4920932;29;20063;-69
2022/04/19 02:43:59;;;;;;;19.38;5.10;;;;;;;7.92;46.46;99346.72;4917528;29;20091;-68
2022/04/19 02:46:26;;;;;;;12.88;5.32;;;;;;;7.88;46.47;99346.44;4917924;29;20060;-68
2022/04/19 02:48:55;;;;;;;15.75;5.15;;;;;;;7.89;46.19;99356.25;4901586;29;20066;-69
2022/04/19 02:51:22;;;;;;;14.93;5.10;;;;;;;7.99;46.19;99360.06;4921042;29;20071;-68
2022/04/19 02:53:49;;;;;;;16.10;5.40;;;;;;;7.85;46.44;99351.59;4917271;29;20070;-69
2022/04/19 02:56:14;;;;;;;33.88;7.00;;;;;;;7.83;46.47;99353.78;4933635;29;20055;-68
2022/04/19 02:58:41;;;;;;;19.65;5.15;;;;;;;7.92;46.19;99358.44;4934829;29;20539;-69
2022/04/19 03:01:08;;;;;;;13.90;4.65;;;;;;;7.86;46.44;99370.38;4915516;29;20087;-68
2022/04/19 03:03:34;;;;;;;14.80;5.22;;;;;;;7.93;46.14;99370.13;4910355;29;20461;-68
2022/04/19 03:06:01;;;;;;;18.98;5.32;;;;;;;7.79;46.59;99367.09;4930759;29;20146;-68
2022/04/19 03:08:28;;;;;;;13.95;4.93;;;;;;;7.71;46.69;99357.53;4916442;29;20410;-69
2022/04/19 03:10:55;;;;;;;15.68;5.22;;;;;;;7.78;46.73;99365.47;4925834;29;20064;-69
2022/04/19 03:13:21;;;;;;;13.13;5.28;;;;;;;7.85;46.65;99365.22;4929098;29;20086;-73
2022/04/19 03:15:47;;;;;;;17.55;5.88;;;;;;;7.80;46.82;99368.72;4916583;29;20077;-72
2022/04/19 03:18:15;;;;;;;11.10;5.13;;;;;;;7.81;46.74;99370.38;4915884;29;20043;-72
2022/04/19 03:20:45;;;;;;;17.60;6.25;;;;;;;7.88;46.72;99370.94;4917303;29;20094;-72
2022/04/19 03:28:54;;;;;;;16.42;5.72;;;;;;;7.88;46.68;99362.78;4912638;29;20516;-71
2022/04/19 03:31:23;;;;;;;24.42;7.20;;;;;;;7.97;46.71;99364.97;4926620;29;20044;-72
2022/04/19 03:33:52;;;;;;;18.40;5.72;;;;;;;7.82;46.78;99339.34;4927905;29;20060;-72
2022/04/19 03:36:19;;;;;;;15.75;5.68;;;;;;;7.88;47.14;99354.63;4934446;29;20055;-70
2022/04/19 03:38:46;;;;;;;16.55;5.70;;;;;;;7.92;47.00;99363.03;4932146;29;20135;-72
2022/04/19 03:41:13;;;;;;;13.68;5.10;;;;;;;8.01;47.12;99366.88;4932376;29;20063;-71
2022/04/19 03:43:41;;;;;;;15.48;5.25;;;;;;;7.93;47.18;99354.63;4916878;29;20059;-71
2022/04/19 03:46:07;;;;;;;15.60;5.47;;;;;;;8.01;47.00;99361.44;4936363;29;20067;-71
2022/04/19 03:48:33;;;;;;;19.73;5.90;;;;;;;7.95;47.56;99363.34;4933002;29;20142;-71
2022/04/19 03:51:00;;;;;;;13.82;5.15;;;;;;;8.00;47.25;99343.47;4932935;29;20152;-72
2022/04/19 03:53:27;;;;;;;20.73;5.90;;;;;;;8.04;47.34;99360.91;4932110;29;20537;-72
2022/04/19 03:55:53;;;;;;;13.98;5.50;;;;;;;8.01;47.48;99352.44;4919928;29;20051;-71
2022/04/19 03:58:19;;;;;;;17.08;5.72;;;;;;;8.10;47.49;99350.84;4916390;29;20070;-71
2022/04/19 04:00:46;;;;;;;13.57;5.63;;;;;;;8.10;47.72;99345.41;4931875;29;20075;-71
2022/04/19 04:03:13;;;;;;;18.58;5.70;;;;;;;8.20;47.74;99358.22;4931284;29;20052;-71
2022/04/19 04:05:39;;;;;;;17.42;5.82;;;;;;;8.29;47.48;99356.59;4934802;29;20511;-72
2022/04/19 04:08:07;;;;;;;15.20;5.03;;;;;;;8.23;47.84;99354.94;4916585;29;20055;-72
2022/04/19 04:10:43;;;;;;;19.00;5.65;;;;;;;8.20;47.91;99350.03;4932020;29;20523;-72
2022/04/19 04:13:09;;;;;;;14.48;4.65;;;;;;;8.22;47.87;99351.41;4912499;29;20071;-72
2022/04/19 04:15:35;;;;;;;15.05;4.78;;;;;;;8.36;47.56;99359.88;4931870;29;20067;-71
2022/04/19 04:18:02;;;;;;;21.95;4.80;;;;;;;8.33;47.61;99359.59;4931755;29;20441;-71
2022/04/19 04:20:29;;;;;;;13.90;4.55;;;;;;;8.36;47.76;99356.34;4931657;29;20560;-71
2022/04/19 04:22:55;;;;;;;11.53;4.73;;;;;;;8.32;47.80;99345.16;4924734;29;20432;-71
2022/04/19 04:25:23;;;;;;;16.38;4.75;;;;;;;8.42;47.94;99352.53;4916195;29;20150;-71
2022/04/19 04:27:49;;;;;;;14.02;4.43;;;;;;;8.40;48.07;99364.75;4931674;29;20528;-72
2022/04/19 04:30:15;;;;;;;22.58;5.75;;;;;;;8.39;48.31;99358.50;4927205;29;20067;-72
2022/04/19 04:32:50;;;;;;;16.77;4.50;;;;;;;8.36;48.33;99361.78;4933887;29;20051;-72
2022/04/19 04:35:17;;;;;;;13.10;4.65;;;;;;;8.43;48.14;99358.78;4913928;29;20540;-71
2022/04/19 04:37:43;;;;;;;12.93;5.03;;;;;;;8.43;48.37;99367.78;4930344;29;20572;-70
2022/04/19 04:40:11;;;;;;;12.38;4.55;;;;;;;8.41;48.48;99366.41;4926004;29;20051;-72
2022/04/19 04:42:51;;;;;;;12.10;4.70;;;;;;;8.51;48.48;99372.72;4891616;29;20066;-71
2022/04/19 04:45:17;;;;;;;14.07;4.25;;;;;;;8.50;48.38;99362.91;4922118;29;20523;-71
2022/04/19 04:50:30;;;;;;;15.63;4.70;;;;;;;8.51;48.45;99375.47;4914962;29;20055;-71
2022/04/19 04:52:59;;;;;;;12.90;4.85;;;;;;;8.52;48.60;99384.44;4929249;29;20071;-71
2022/04/19 04:55:25;;;;;;;13.30;4.65;;;;;;;8.46;48.83;99375.41;4916950;29;20061;-70
2022/04/19 04:57:56;;;;;;;21.75;5.22;;;;;;;8.45;48.57;99368.31;4932410;29;20454;-71
2022/04/19 05:00:25;;;;;;;14.18;4.78;;;;;;;8.47;49.08;99374.31;4913587;29;20055;-71
2022/04/19 05:02:55;;;;;;;14.18;5.05;;;;;;;8.55;48.70;99381.16;4912223;29;20079;-71
2022/04/19 05:05:22;;;;;;;15.38;5.03;;;;;;;8.51;48.44;99374.63;4916077;29;20528;-70
2022/04/19 05:07:52;;;;;;;14.55;5.03;;;;;;;8.46;49.27;99374.59;4924244;29;20054;-72
2022/04/19 05:10:19;;;;;;;14.07;5.40;;;;;;;8.47;49.17;99377.03;4920300;29;20067;-73
2022/04/19 05:12:45;;;;;;;16.77;4.03;;;;;;;8.53;48.90;99372.44;4915467;29;20127;-73
2022/04/19 05:15:16;;;;;;;13.75;4.30;;;;;;;8.48;49.31;99375.94;4915942;29;20059;-72
2022/04/19 05:17:42;;;;;;;21.25;4.65;;;;;;;8.52;49.34;99365.34;4915312;29;20176;-70
2022/04/19 05:20:09;;;;;;;12.18;4.55;;;;;;;8.61;49.21;99373.81;4915451;29;20143;-71
2022/04/19 05:22:38;;;;;;;24.02;4.93;;;;;;;8.57;49.39;99370.00;4897180;29;20090;-71
2022/04/19 05:25:06;;;;;;;14.65;4.32;;;;;;;8.62;49.38;99376.28;4919055;29;20119;-71
2022/04/19 05:27:32;;;;;;;18.02;4.90;;;;;;;8.67;49.20;99375.47;4916321;29;20574;-71
2022/04/19 05:29:59;;;;;;;13.25;4.65;;;;;;;8.65;49.21;99370.28;4914932;29;20051;-71
2022/04/19 05:32:28;;;;;;;11.77;3.90;;;;;;;8.75;49.08;99376.81;4915466;29;20068;-71
2022/04/19 05:34:55;;;;;;;10.75;4.15;;;;;;;8.76;49.16;99375.72;4932442;29;20051;-71
2022/04/19 05:37:21;;;;;;;13.02;4.82;;;;;;;8.64;49.69;99370.53;4915501;29;20511;-70
2022/04/19 05:39:47;;;;;;;18.38;5.25;;;;;;;8.72;49.56;99371.91;4932310;29;20056;-70
2022/04/19 05:42:13;;;;;;;15.52;4.80;;;;;;;8.69;49.22;99358.81;4914332;29;20058;-70
2022/04/19 05:44:41;;;;;;;14.45;4.75;;;;;;;8.74;49.28;99372.44;4927850;29;20051;-71
2022/04/19 05:47:10;;;;;;;19.80;5.55;;;;;;;8.76;49.29;99373.81;4897452;29;20532;-72
2022/04/19 05:49:37;;;;;;;23.73;5.50;;;;;;;8.86;49.21;99372.19;4911434;29;20146;-73
2022/04/19 05:52:04;;;;;;;18.13;5.68;;;;;;;8.88;49.37;99380.91;4926427;29;20084;-69
2022/04/19 05:54:30;;;;;;;16.50;5.47;;;;;;;8.92;49.24;99379.25;4929287;29;20054;-69
2022/04/19 05:56:57;;;;;;;14.05;5.05;;;;;;;8.96;49.05;99379.53;4916610;29;20514;-68
2022/04/19 05:59:23;;;;;;;23.10;6.32;;;;;;;8.99;49.12;99385.25;4914846;29;20052;-69
2022/04/19 06:05:10;;;;;;;13.45;5.20;;;;;;;9.10;48.69;99382.50;4908976;29;20056;-69
2022/04/19 06:07:31;;;;;;;18.75;4.25;;;;;;;9.07;48.78;99390.16;4930763;29;20051;-69
2022/04/19 06:10:07;;;;;;;24.05;4.82;;;;;;;9.02;49.15;99390.16;4928087;29;20071;-69
2022/04/19 06:12:34;;;;;;;16.67;5.03;;;;;;;9.03;49.27;99385.50;4931713;29;20051;-69
2022/04/19 06:15:02;;;;;;;17.92;4.85;;;;;;;9.19;48.84;99386.31;4917256;29;20516;-69
2022/04/19 06:17:35;;;;;;;26.35;5.55;;;;;;;9.18;48.83;99374.56;4910174;29;20055;-69
2022/04/19 06:20:10;;;;;;;17.02;4.82;;;;;;;9.34;48.59;99385.44;4936638;29;20059;-69
2022/04/19 06:22:38;;;;;;;19.92;4.60;;;;;;;9.35;48.57;99371.53;4915524;29;20058;-70
2022/04/19 06:25:12;;;;;;;26.55;5.15;;;;;;;9.36;48.38;99375.06;4933095;29;20052;-69
2022/04/19 06:27:39;;;;;;;15.68;5.35;;;;;;;9.45;48.41;99381.59;4934270;29;20091;-67
2022/04/19 06:30:09;;;;;;;15.93;4.80;;;;;;;9.53;48.08;99377.50;4917844;29;20065;-67
2022/04/19 06:32:36;;;;;;;16.20;4.93;;;;;;;9.57;48.20;99380.50;4923517;29;20461;-67
2022/04/19 06:35:04;;;;;;;15.15;4.50;;;;;;;9.63;47.90;99387.56;4915130;29;20155;-67
2022/04/19 06:37:33;;;;;;;21.27;4.93;;;;;;;9.70;48.13;99392.72;4916430;29;20101;-68
2022/04/19 06:40:08;;;;;;;25.13;5.22;;;;;;;9.78;47.86;99389.41;4917828;29;20485;-67
2022/04/19 06:42:35;;;;;;;14.52;5.05;;;;;;;9.81;47.68;99401.69;4933159;29;20071;-67
2022/04/19 06:45:20;;;;;;;13.55;4.05;;;;;;;9.83;47.88;99389.38;4932602;29;20056;-68
2022/04/19 06:47:56;;;;;;;14.32;4.28;;;;;;;9.88;47.85;99385.81;4919418;29;20059;-68
2022/04/19 06:50:23;;;;;;;20.85;4.55;;;;;;;9.93;47.78;99392.09;4912219;29;20059;-67
2022/04/19 06:52:53;;;;;;;16.63;5.20;;;;;;;9.96;47.93;99382.50;4917150;29;20139;-67
2022/04/19 06:55:40;;;;;;;18.60;3.78;;;;;;;10.06;47.82;99381.63;4924204;29;20079;-68
2022/04/19 06:58:07;;;;;;;11.13;4.00;;;;;;;10.08;47.68;99382.97;4934980;29;20052;-68
2022/04/19 07:00:34;;;;;;;11.98;4.15;;;;;;;10.05;47.88;99380.81;4916691;29;20083;-68
2022/04/19 07:03:01;;;;;;;17.20;4.60;;;;;;;10.06;47.92;99381.63;4916622;29;20051;-68
2022/04/19 07:05:47;;;;;;;15.52;4.57;;;;;;;10.07;47.81;99386.81;4927238;29;20055;-68
2022/04/19 07:08:14;;;;;;;16.65;4.65;;;;;;;10.01;48.15;99382.47;4932573;29;20063;-68
2022/04/19 07:10:42;;;;;;;13.27;4.10;;;;;;;9.97;48.18;99386.84;4920412;29;20060;-69
2022/04/19 07:13:27;;;;;;;15.68;4.50;;;;;;;9.97;48.25;99383.31;4923741;29;20056;-68
2022/04/19 07:15:54;;;;;;;;;;;;;;;10.00;48.23;99386.31;4914914;29;20142;-67
2022/04/19 07:18:24;;;;;;;14.50;4.78;;;;;;;10.02;48.01;99391.47;4922713;29;19994;-68
2022/04/19 07:26:47;;;;;;;24.42;5.20;;;;;;;10.01;48.25;99396.16;4930172;29;20055;-67
2022/04/19 07:29:18;;;;;;;13.07;4.05;;;;;;;9.92;48.48;99395.91;4913823;29;20059;-66
2022/04/19 07:31:47;;;;;;;14.63;4.45;;;;;;;9.97;48.78;99397.78;4899096;29;20505;-67
2022/04/19 07:34:33;;;;;;;13.93;4.60;;;;;;;10.00;48.66;99393.69;4906994;29;20059;-67
2022/04/19 07:36:59;;;;;;;12.57;4.25;;;;;;;9.97;48.92;99392.31;4917190;29;20520;-67
2022/04/19 07:39:26;;;;;;;13.15;4.75;;;;;;;9.95;49.17;99401.91;4915925;29;20067;-67
2022/04/19 07:41:53;;;;;;;18.27;4.50;;;;;;;9.94;49.12;99395.63;4916509;29;20432;-66
2022/04/19 07:44:20;;;;;;;16.85;4.82;;;;;;;9.92;49.50;99401.38;4918511;29;20137;-66
2022/04/19 07:46:46;;;;;;;15.40;4.47;;;;;;;9.98;49.46;99404.06;4916401;29;20086;-67
2022/04/19 07:49:13;;;;;;;15.30;5.15;;;;;;;10.01;49.34;99404.34;4943125;29;20055;-66
2022/04/19 07:51:40;;;;;;;20.40;5.50;;;;;;;10.04;49.46;99403.78;4915316;29;20055;-66
2022/04/19 07:54:09;;;;;;;12.15;4.47;;;;;;;9.95;49.73;99416.38;4933938;29;20047;-67
2022/04/19 07:56:36;;;;;;;12.80;4.65;;;;;;;10.01;49.68;99417.16;4916229;29;20154;-66
2022/04/19 07:59:03;;;;;;;10.90;4.30;;;;;;;10.01;49.76;99428.09;4925964;29;20056;-66
2022/04/19 08:01:29;;;;;;;17.77;4.35;;;;;;;10.10;49.57;99423.69;4921331;29;20062;-67
2022/04/19 08:03:55;;;;;;;16.85;4.53;;;;;;;10.08;49.54;99413.03;4915268;29;20099;-65
2022/04/19 08:06:22;;;;;;;14.95;4.97;;;;;;;9.95;50.16;99419.09;4913399;29;20068;-67
2022/04/19 08:08:48;;;;;;;14.67;4.67;;;;;;;9.98;50.02;99417.72;4915586;29;20058;-68
2022/04/19 08:11:14;;;;;;;16.02;5.30;;;;;;;9.99;49.87;99420.19;4932212;29;20074;-67
2022/04/19 08:13:43;;;;;;;17.00;5.20;;;;;;;9.93;50.06;99411.19;4916480;29;20055;-67
2022/04/19 08:16:10;;;;;;;18.30;5.70;;;;;;;9.98;50.02;99417.72;4935262;29;20063;-65
2022/04/19 08:18:38;;;;;;;16.65;5.68;;;;;;;9.97;50.12;99416.09;4915173;29;20078;-65
2022/04/19 08:21:04;;;;;;;20.63;5.40;;;;;;;9.96;50.09;99409.00;4931625;29;20106;-64
2022/04/19 08:23:30;;;;;;;13.85;5.78;;;;;;;9.93;50.36;99413.09;4932407;29;20562;-65
2022/04/19 08:26:00;;;;;;;12.88;5.20;;;;;;;9.97;50.14;99413.38;4931591;29;20131;-67
2022/04/19 08:28:28;;;;;;;;;;;;;;;10.00;50.10;99415.53;4914920;29;20044;-67
2022/04/19 08:30:55;;;;;;;15.75;5.03;;;;;;;9.96;50.15;99415.25;4930240;29;19982;-65
2022/04/19 08:33:28;;;;;;;15.27;4.63;;;;;;;9.97;50.28;99416.09;4915203;29;20075;-64
2022/04/19 08:35:55;;;;;;;24.33;5.38;;;;;;;9.93;50.72;99404.91;4924021;29;20138;-64
2022/04/19 08:38:22;;;;;;;12.95;4.63;;;;;;;9.92;50.61;99420.50;4928653;29;20086;-65
2022/04/19 08:40:49;;;;;;;18.55;5.40;;;;;;;9.95;50.64;99408.16;4930882;29;20051;-66
2022/04/19 08:43:15;;;;;;;17.70;6.03;;;;;;;9.92;50.77;99412.28;4900342;29;20052;-66
2022/04/19 08:45:42;;;;;;;27.98;9.05;;;;;;;9.98;50.74;99404.06;4933846;29;20048;-66
2022/04/19 08:48:10;;;;;;;26.05;6.97;;;;;;;10.02;50.81;99400.50;4931783;29;20094;-66
2022/04/19 08:50:37;;;;;;;20.98;6.53;;;;;;;10.08;50.75;99404.03;4932939;29;20089;-66
2022/04/19 08:58:34;;;;;;;22.02;6.88;;;;;;;10.21;50.44;99395.19;4932175;29;20063;-66
2022/04/19 09:01:00;;;;;;;24.75;7.43;;;;;;;10.28;50.25;99397.63;4931293;29;20052;-66
2022/04/19 09:03:27;;;;;;;17.05;6.88;;;;;;;10.29;50.32;99391.03;4936318;29;20066;-66
2022/04/19 09:05:54;;;;;;;23.13;6.95;;;;;;;10.38;50.27;99399.50;4930333;29;20071;-65
2022/04/19 09:08:21;;;;;;;29.20;9.02;;;;;;;10.36;50.16;99393.47;4935274;29;20059;-70
2022/04/19 09:10:47;;;;;;;29.33;9.85;;;;;;;10.43;49.92;99388.53;4929200;29;20071;-69
2022/04/19 09:13:21;;;;;;;28.60;9.98;;;;;;;10.53;49.99;99387.66;4931255;29;20091;-68
2022/04/19 09:15:48;;;;;;;25.02;8.43;;;;;;;10.63;49.90;99384.84;4932122;29;20066;-68
2022/04/19 09:18:24;;;;;;;27.70;7.18;;;;;;;10.67;50.01;99393.28;4931004;29;20083;-65
2022/04/19 09:20:52;;;;;;;13.40;5.55;;;;;;;10.71;50.08;99390.78;4937439;29;20060;-68
2022/04/19 09:23:18;;;;;;;16.23;5.25;;;;;;;10.54;49.81;99364.69;4933786;29;20192;-68
2022/04/19 09:25:45;;;;;;;16.65;5.78;;;;;;;10.82;50.17;99397.00;4933107;29;20085;-67
2022/04/19 09:28:19;;;;;;;20.75;5.43;;;;;;;10.80;50.44;99397.28;4939916;29;20070;-67
2022/04/19 09:30:48;;;;;;;16.55;5.40;;;;;;;10.90;50.15;99396.38;4940115;29;20460;-67
2022/04/19 09:33:16;;;;;;;15.32;5.78;;;;;;;11.01;50.09;99389.72;4936205;29;20091;-69
2022/04/19 09:35:44;;;;;;;16.55;5.53;;;;;;;11.05;50.12;99392.69;4931770;29;22145;-66
2022/04/19 09:38:12;;;;;;;16.13;4.80;;;;;;;11.08;49.89;99389.38;4936535;29;20400;-67
2022/04/19 09:40:38;;;;;;;;;;;;;;;11.13;50.07;99393.97;4934312;29;20138;-68
2022/04/19 09:43:12;;;;;;;21.27;6.95;;;;;;;11.13;50.17;99396.72;4933988;29;19935;-68
2022/04/19 09:45:54;;;;;;;11.23;4.80;;;;;;;11.16;50.34;99396.97;4932538;29;20151;-68
2022/04/19 09:48:23;;;;;;;17.50;4.68;;;;;;;11.14;50.36;99401.91;4918647;29;20050;-72
2022/04/19 09:50:51;;;;;;;13.35;4.65;;;;;;;11.12;50.48;99395.91;4932624;29;20419;-66
2022/04/19 09:53:20;;;;;;;25.77;5.97;;;;;;;11.12;50.29;99398.66;4937728;29;20082;-76
2022/04/19 09:55:48;;;;;;;15.70;4.80;;;;;;;11.19;50.56;99396.38;4935259;29;20159;-75
2022/04/19 09:58:15;;;;;;;27.20;5.13;;;;;;;11.22;50.65;99408.69;4903258;29;20058;-74
2022/04/19 10:00:43;;;;;;;16.92;5.00;;;;;;;11.24;50.48;99403.72;4940889;29;20068;-75
2022/04/19 10:08:58;;;;;;;15.95;5.32;;;;;;;11.30;50.40;99404.50;4904128;29;20052;-75
2022/04/19 10:11:25;;;;;;;15.40;5.32;;;;;;;11.34;50.33;99406.38;4918194;29;20472;-76
2022/04/19 10:13:53;;;;;;;14.52;5.43;;;;;;;11.42;50.24;99404.09;4934390;29;20056;-75
2022/04/19 10:16:19;;;;;;;19.08;5.63;;;;;;;11.42;50.40;99399.44;4934302;29;20134;-75
2022/04/19 10:18:46;;;;;;;17.10;5.75;;;;;;;11.52;50.25;99397.69;4940304;29;20048;-75
2022/04/19 10:21:15;;;;;;;15.55;6.05;;;;;;;11.61;50.10;99406.91;4933750;29;20071;-75
2022/04/19 10:23:42;;;;;;;13.50;5.28;;;;;;;11.68;49.95;99396.41;4934590;29;20571;-76
2022/04/19 10:26:17;;;;;;;16.50;5.10;;;;;;;11.70;50.00;99398.88;4944059;29;20428;-75
2022/04/19 10:28:45;;;;;;;12.30;4.35;;;;;;;11.77;49.76;99394.66;4944409;29;20063;-76
2022/04/19 10:31:12;;;;;;;19.67;5.03;;;;;;;11.86;49.58;99388.53;4935122;29;20139;-75
2022/04/19 10:33:47;;;;;;;12.48;4.47;;;;;;;11.93;49.51;99386.25;4942484;29;20138;-75
2022/04/19 10:36:15;;;;;;;19.13;4.45;;;;;;;11.98;49.47;99397.13;4923808;29;20060;-75
2022/04/19 10:38:43;;;;;;;16.70;4.68;;;;;;;12.09;49.27;99402.53;4916440;29;20059;-75
2022/04/19 10:41:10;;;;;;;15.77;5.13;;;;;;;12.16;49.28;99395.56;4934097;29;20074;-75
2022/04/19 10:43:37;;;;;;;18.20;4.78;;;;;;;12.30;49.00;99397.56;4944502;29;20143;-75
2022/04/19 10:46:19;;;;;;;16.55;4.80;;;;;;;12.46;49.05;99382.53;4941351;29;20052;-76
2022/04/19 10:49:23;;;;;;;19.05;5.40;;;;;;;12.67;48.75;99395.13;4936637;29;20553;-75
2022/04/19 10:51:50;;;;;;;14.80;4.00;;;;;;;12.85;48.53;99369.56;4898095;29;20476;-74
2022/04/19 10:54:17;;;;;;;11.52;3.65;;;;;;;13.13;47.80;99366.88;4932499;29;20127;-75
2022/04/19 10:58:05;;;;;;;13.65;4.10;;;;;;;13.31;47.54;99386.34;4914685;29;20406;-75
2022/04/19 11:00:17;;;;;;;18.23;4.45;;;;;;;13.50;46.84;99355.25;4935047;29;20054;-75
2022/04/19 11:02:56;;;;;;;12.32;4.03;;;;;;;13.70;46.68;99363.06;4930695;29;20110;-76
2022/04/19 11:05:41;;;;;;;14.80;4.10;;;;;;;14.02;46.19;99361.28;4925027;29;20052;-76
2022/04/19 11:08:37;;;;;;;13.45;3.72;;;;;;;14.25;46.01;99366.84;4933526;29;20055;-75
2022/04/19 11:11:22;;;;;;;14.52;3.33;;;;;;;14.46;45.37;99371.84;4903875;29;20088;-75
2022/04/19 11:14:17;;;;;;;19.10;3.67;;;;;;;14.65;44.95;99377.19;4931407;29;20520;-74
2022/04/19 11:16:44;;;;;;;12.45;4.22;;;;;;;14.86;44.46;99362.94;4915465;29;20497;-75
2022/04/19 11:19:16;;;;;;;11.30;4.38;;;;;;;14.93;44.00;99368.81;4945236;29;20516;-75
2022/04/19 11:21:52;;;;;;;17.85;3.60;;;;;;;14.82;43.78;99351.75;4938012;29;20448;-75
2022/04/19 11:25:05;;;;;;;16.70;3.22;;;;;;;14.74;43.77;99360.78;4933728;29;20062;-75
2022/04/19 11:28:09;;;;;;;21.17;3.60;;;;;;;14.73;43.67;99362.69;4875388;29;20065;-76
2022/04/19 11:30:36;;;;;;;13.50;3.38;;;;;;;14.71;43.56;99358.63;4935452;29;21220;-75
2022/04/19 11:33:04;;;;;;;13.57;3.72;;;;;;;14.71;43.52;99362.19;4930001;29;20058;-74
2022/04/19 11:35:32;;;;;;;18.70;3.47;;;;;;;14.70;43.65;99362.50;4933282;29;20510;-74
2022/04/19 11:38:03;;;;;;;13.27;3.92;;;;;;;14.73;43.44;99361.91;4925456;29;20106;-75
2022/04/19 11:48:52;;;;;;;15.45;4.18;;;;;;;14.76;43.23;99349.47;4943924;29;20059;-75
2022/04/19 11:51:20;;;;;;;14.65;4.22;;;;;;;14.74;43.27;99350.56;4935354;29;20063;-76
2022/04/19 11:53:47;;;;;;;12.00;3.70;;;;;;;14.80;43.35;99350.44;4941677;29;20090;-76
2022/04/19 11:56:13;;;;;;;15.75;4.55;;;;;;;14.85;42.98;99345.63;4933879;29;20595;-75
2022/04/19 11:58:41;;;;;;;9.20;3.90;;;;;;;14.93;42.56;99341.31;4938326;29;20091;-75
2022/04/19 12:01:10;;;;;;;17.98;4.20;;;;;;;14.95;42.71;99354.72;4915631;29;20422;-73
2022/04/19 12:03:37;;;;;;;11.95;3.70;;;;;;;14.93;42.55;99351.50;4933825;29;20127;-74
2022/04/19 12:06:05;;;;;;;;;;;;;;;14.91;42.62;99343.56;4932265;29;20051;-73
2022/04/19 12:08:33;;;;;;;22.50;4.40;;;;;;;14.85;42.89;99348.38;4941538;29;20048;-73
2022/04/19 12:11:02;;;;;;;16.90;4.78;;;;;;;14.78;42.94;99350.75;4935683;29;20083;-73
2022/04/19 12:13:29;;;;;;;10.68;3.17;;;;;;;14.75;42.89;99359.63;4940160;29;20126;-73
2022/04/19 12:15:55;;;;;;;16.45;4.05;;;;;;;14.66;43.12;99347.72;4929530;29;20066;-74
2022/04/19 12:18:32;;;;;;;12.95;4.00;;;;;;;14.65;43.06;99370.84;4917302;29;20055;-73
2022/04/19 12:20:59;;;;;;;16.48;3.33;;;;;;;14.57;43.08;99365.00;4933858;29;20138;-74